Time;durP1;ratioP1;P1;durP2;ratioP2;P2;SDS_P1;SDS_P2;PMS_P1;PMS_P2;Temp;Humidity;BMP_temperature;BMP_pressure;BME280_temperature;BME280_humidity;BME280_pressure;Samples;Min_cycle;Max_cycle;Signal;HPM_P1;HPM_P2
2022/01/01 00:01:42;;;;;;;6.53;5.93;;;;;;;11.29;71.84;96356.22;4419041;32;20207;-63
2022/01/01 00:04:08;;;;;;;6.40;5.80;;;;;;;11.27;71.76;96360.19;4412360;32;20203;-64
2022/01/01 00:06:33;;;;;;;5.47;5.03;;;;;;;11.32;72.08;96357.53;4409329;32;20185;-64
2022/01/01 00:08:58;;;;;;;5.30;4.90;;;;;;;11.38;71.91;96356.44;4420944;32;20264;-63
2022/01/01 00:11:23;;;;;;;5.43;5.03;;;;;;;11.36;71.50;96353.25;4410211;32;20188;-64
2022/01/01 00:13:49;;;;;;;5.03;4.63;;;;;;;11.24;72.43;96366.84;4409964;32;20215;-64
2022/01/01 00:16:14;;;;;;;5.17;4.63;;;;;;;11.17;72.37;96360.25;4418114;32;20191;-64
2022/01/01 00:18:39;;;;;;;4.70;4.33;;;;;;;11.15;72.57;96351.75;4410771;32;20266;-64
2022/01/01 00:21:05;;;;;;;4.93;4.53;;;;;;;11.11;73.16;96359.47;4421740;32;20195;-64
2022/01/01 00:23:31;;;;;;;4.17;3.87;;;;;;;11.14;72.63;96350.16;4408516;32;20198;-64
2022/01/01 00:25:57;;;;;;;4.03;3.73;;;;;;;11.10;73.12;96357.87;4408582;32;20283;-64
2022/01/01 00:28:22;;;;;;;6.70;4.70;;;;;;;11.26;72.32;96347.97;4408613;32;20184;-65
2022/01/01 00:30:47;;;;;;;4.73;4.10;;;;;;;11.10;72.84;96343.78;4403988;32;20192;-64
2022/01/01 00:33:13;;;;;;;4.30;4.00;;;;;;;11.01;72.90;96357.63;4414806;32;20192;-64
2022/01/01 00:35:40;;;;;;;3.70;3.50;;;;;;;11.03;72.99;96360.00;4407096;32;20191;-64
2022/01/01 00:38:05;;;;;;;3.70;3.40;;;;;;;11.11;73.08;96356.00;4408957;32;20241;-64
2022/01/01 00:40:31;;;;;;;3.87;3.57;;;;;;;11.05;73.14;96363.19;4408283;32;20184;-64
2022/01/01 00:42:56;;;;;;;3.40;3.20;;;;;;;10.99;73.19;96372.25;4413003;32;20271;-64
2022/01/01 00:45:23;;;;;;;3.83;3.53;;;;;;;10.99;73.30;96369.59;4409691;32;20206;-64
2022/01/01 00:47:48;;;;;;;3.33;3.10;;;;;;;10.93;73.34;96371.47;4411983;32;20198;-64
2022/01/01 00:50:14;;;;;;;4.93;2.90;;;;;;;11.11;72.80;96377.25;4408625;32;20188;-64
2022/01/01 00:52:39;;;;;;;3.87;2.53;;;;;;;10.94;73.26;96375.72;4407563;32;20214;-64
2022/01/01 00:55:05;;;;;;;4.50;3.37;;;;;;;11.02;72.90;96379.66;4409681;32;20196;-64
2022/01/01 00:57:31;;;;;;;2.50;2.17;;;;;;;11.02;73.29;96385.75;4412249;32;20192;-64
2022/01/01 00:59:56;;;;;;;3.00;2.80;;;;;;;11.03;72.84;96389.22;4415900;32;20263;-64
2022/01/01 01:02:21;;;;;;;2.60;2.40;;;;;;;10.98;73.46;96395.34;4419255;32;20219;-64
2022/01/01 01:04:46;;;;;;;3.10;2.90;;;;;;;10.92;73.24;96388.44;4420423;32;20207;-64
2022/01/01 01:07:12;;;;;;;2.67;2.30;;;;;;;10.86;73.52;96396.69;4421784;32;20208;-65
2022/01/01 01:09:37;;;;;;;2.50;2.30;;;;;;;10.91;73.65;96392.16;4412541;32;20296;-65
2022/01/01 01:12:03;;;;;;;2.40;2.20;;;;;;;10.82;73.76;96385.81;4416073;32;20270;-64
2022/01/01 01:14:39;;;;;;;2.50;2.30;;;;;;;10.84;73.46;96389.00;4421599;32;20187;-64
2022/01/01 01:17:04;;;;;;;2.53;2.40;;;;;;;10.84;73.57;96389.00;4417549;32;20208;-64
2022/01/01 01:19:29;;;;;;;2.10;2.00;;;;;;;10.73;74.20;96391.94;4407275;32;20207;-64
2022/01/01 01:21:54;;;;;;;2.30;2.10;;;;;;;10.97;73.30;96385.00;4414695;32;20272;-64
2022/01/01 01:24:23;;;;;;;3.03;2.40;;;;;;;10.90;72.99;96405.72;4410145;32;20219;-64
2022/01/01 01:26:50;;;;;;;3.43;2.80;;;;;;;10.81;73.70;96407.31;4415173;32;20188;-64
2022/01/01 01:29:16;;;;;;;5.10;2.47;;;;;;;10.89;73.44;96407.56;4407922;32;20268;-64
2022/01/01 01:31:41;;;;;;;2.77;2.40;;;;;;;10.89;73.54;96412.09;4407331;32;20223;-65
2022/01/01 01:34:06;;;;;;;2.50;2.30;;;;;;;10.81;73.56;96416.06;4410321;32;20213;-64
2022/01/01 01:36:32;;;;;;;2.43;2.33;;;;;;;10.72;74.07;96416.88;4420153;32;20267;-64
2022/01/01 01:38:57;;;;;;;2.60;2.50;;;;;;;10.74;73.66;96426.19;4420973;32;20228;-64
2022/01/01 01:41:23;;;;;;;3.57;2.60;;;;;;;10.74;73.76;96428.81;4411944;32;20180;-64
2022/01/01 01:43:51;;;;;;;2.63;2.43;;;;;;;10.81;73.35;96428.53;4410903;32;20296;-64
2022/01/01 01:46:17;;;;;;;3.10;2.73;;;;;;;10.71;74.24;96426.69;4421346;32;20232;-64
2022/01/01 01:48:44;;;;;;;2.93;2.40;;;;;;;10.55;74.60;96435.72;4415348;32;20203;-64
2022/01/01 01:51:10;;;;;;;2.50;2.33;;;;;;;10.62;74.33;96439.69;4415904;32;20202;-65
2022/01/01 01:53:35;;;;;;;2.57;2.30;;;;;;;10.63;74.46;96441.28;4410619;32;20180;-64
2022/01/01 01:56:04;;;;;;;3.00;2.80;;;;;;;10.68;74.19;96427.22;4406356;32;20227;-64
2022/01/01 01:58:30;;;;;;;3.00;2.80;;;;;;;10.68;74.28;96424.56;4413514;32;20187;-64
2022/01/01 02:01:20;;;;;;;3.07;2.53;;;;;;;10.66;74.32;96432.00;4420214;32;20190;-64
2022/01/01 02:03:46;;;;;;;2.97;2.77;;;;;;;10.67;74.23;96422.97;4410308;32;20203;-64
2022/01/01 02:06:14;;;;;;;4.00;2.70;;;;;;;10.60;74.58;96422.44;4409988;32;20207;-64
2022/01/01 02:08:39;;;;;;;3.10;2.90;;;;;;;10.62;74.54;96430.94;4414768;32;20203;-65
2022/01/01 02:11:05;;;;;;;2.77;2.57;;;;;;;10.50;74.79;96433.87;4419526;32;20228;-64
2022/01/01 02:13:38;;;;;;;2.90;2.57;;;;;;;10.54;74.84;96431.47;4408052;32;20210;-64
2022/01/01 02:18:44;;;;;;;2.20;2.10;;;;;;;10.45;75.35;96428.56;4407738;32;20230;-64
2022/01/01 02:21:11;;;;;;;3.13;2.47;;;;;;;10.52;74.99;96436.25;4411168;32;20217;-64
2022/01/01 02:23:41;;;;;;;2.30;2.20;;;;;;;10.50;75.39;96427.75;4411467;32;20206;-64
2022/01/01 02:26:11;;;;;;;2.83;2.63;;;;;;;10.46;74.92;96434.66;4407650;32;20188;-64
2022/01/01 02:28:37;;;;;;;2.80;2.60;;;;;;;10.44;74.76;96432.25;4414749;32;20251;-64
2022/01/01 02:31:05;;;;;;;2.20;2.00;;;;;;;10.32;75.05;96434.37;4419803;32;20215;-64
2022/01/01 02:33:32;;;;;;;2.83;2.63;;;;;;;10.41;74.94;96427.47;4413585;32;20206;-64
2022/01/01 02:35:57;;;;;;;2.80;2.60;;;;;;;10.32;75.16;96427.22;4419915;32;20278;-64
2022/01/01 02:38:23;;;;;;;2.83;2.50;;;;;;;10.31;75.43;96428.28;4418714;32;20183;-64
2022/01/01 02:40:48;;;;;;;2.77;2.57;;;;;;;10.30;75.31;96421.38;4424459;32;20191;-64
2022/01/01 02:43:14;;;;;;;2.80;2.60;;;;;;;10.20;75.56;96416.06;4412674;32;20263;-64
2022/01/01 02:45:40;;;;;;;4.83;2.73;;;;;;;10.23;75.30;96418.19;4417656;32;20247;-64
2022/01/01 02:48:05;;;;;;;3.00;2.80;;;;;;;10.31;75.14;96419.53;4417276;32;20188;-64
2022/01/01 02:50:31;;;;;;;2.83;2.63;;;;;;;10.23;75.18;96418.19;4404464;32;20191;-64
2022/01/01 02:52:56;;;;;;;3.37;3.10;;;;;;;10.13;75.96;96420.81;4407971;32;20224;-64
2022/01/01 02:55:21;;;;;;;4.57;2.67;;;;;;;10.18;75.44;96415.53;4404642;32;20200;-64
2022/01/01 02:57:47;;;;;;;2.50;2.30;;;;;;;10.10;75.76;96412.56;4406767;32;20188;-64
2022/01/01 03:00:14;;;;;;;2.40;2.30;;;;;;;10.18;75.44;96404.91;4411215;32;20183;-64
2022/01/01 03:02:39;;;;;;;3.00;2.80;;;;;;;10.11;75.61;96417.63;4404503;32;20188;-65
2022/01/01 03:05:06;;;;;;;2.20;2.10;;;;;;;10.15;75.56;96417.91;4412642;32;20237;-64
2022/01/01 03:07:34;;;;;;;2.80;2.60;;;;;;;10.15;75.48;96429.31;4411481;32;20214;-65
2022/01/01 03:09:59;;;;;;;2.93;2.73;;;;;;;10.07;75.74;96421.84;4411949;32;20184;-64
2022/01/01 03:12:25;;;;;;;3.50;2.60;;;;;;;10.20;75.49;96426.66;4403773;32;20202;-65
2022/01/01 03:14:50;;;;;;;2.63;2.30;;;;;;;10.09;75.47;96429.53;4415387;32;20219;-64
2022/01/01 03:17:15;;;;;;;2.73;2.53;;;;;;;10.11;75.53;96428.22;4405391;32;20200;-65
2022/01/01 03:19:40;;;;;;;2.27;2.00;;;;;;;10.10;75.63;96436.44;4415285;32;20245;-65
2022/01/01 03:22:06;;;;;;;2.47;2.27;;;;;;;10.12;75.42;96431.69;4408309;32;20192;-65
2022/01/01 03:24:31;;;;;;;2.20;2.10;;;;;;;10.13;75.43;96426.09;4405426;32;20184;-64
2022/01/01 03:26:57;;;;;;;3.00;2.80;;;;;;;10.17;75.46;96432.50;4404998;32;20251;-64
2022/01/01 03:29:22;;;;;;;2.60;2.40;;;;;;;10.11;75.52;96438.03;4415789;32;20220;-64
2022/01/01 03:31:47;;;;;;;2.50;2.17;;;;;;;10.17;75.35;96445.75;4419665;32;20176;-65
2022/01/01 03:34:13;;;;;;;2.40;2.20;;;;;;;10.18;75.13;96450.00;4406686;32;20229;-64
2022/01/01 03:36:38;;;;;;;2.80;2.50;;;;;;;10.16;75.80;96448.66;4406201;32;20192;-65
2022/01/01 03:39:06;;;;;;;2.73;2.53;;;;;;;10.14;75.87;96458.72;4412874;32;20255;-64
2022/01/01 03:41:31;;;;;;;3.23;2.23;;;;;;;10.15;75.69;96461.12;4419254;32;20172;-64
2022/01/01 03:43:56;;;;;;;2.17;2.07;;;;;;;10.13;75.77;96460.59;4407330;32;20193;-64
2022/01/01 03:46:22;;;;;;;2.73;2.53;;;;;;;10.27;75.35;96466.19;4414121;32;20190;-65
2022/01/01 03:48:47;;;;;;;2.17;2.07;;;;;;;10.16;75.74;96478.63;4408623;32;20214;-64
2022/01/01 03:51:12;;;;;;;2.53;2.17;;;;;;;10.06;76.29;96473.28;4409975;32;20214;-64
2022/01/01 03:53:38;;;;;;;3.43;2.37;;;;;;;10.09;76.13;96477.25;4419603;32;20199;-65
2022/01/01 03:56:07;;;;;;;2.60;2.40;;;;;;;10.06;75.70;96481.22;4422252;32;20565;-64
2022/01/01 03:58:33;;;;;;;4.90;2.67;;;;;;;9.97;75.96;96474.84;4415214;32;20192;-64
2022/01/01 04:00:58;;;;;;;2.27;2.17;;;;;;;10.02;76.17;96487.31;4418875;32;20180;-64
2022/01/01 04:03:23;;;;;;;2.17;2.07;;;;;;;9.99;76.51;96483.31;4420582;32;20180;-64
2022/01/01 04:05:49;;;;;;;3.33;2.43;;;;;;;9.94;77.04;96486.78;4408857;32;20176;-64
2022/01/01 04:08:14;;;;;;;2.17;2.07;;;;;;;10.00;76.57;96484.91;4407454;32;20184;-64
2022/01/01 04:10:40;;;;;;;5.70;2.60;;;;;;;9.99;76.90;96481.47;4418616;32;20183;-64
2022/01/01 04:13:07;;;;;;;2.50;2.27;;;;;;;10.02;76.87;96474.84;4424177;32;20183;-64
2022/01/01 04:15:33;;;;;;;3.00;2.70;;;;;;;9.95;77.09;96472.47;4413600;32;20187;-64
2022/01/01 04:18:07;;;;;;;2.20;2.10;;;;;;;10.07;76.39;96480.19;4417572;32;20188;-64
2022/01/01 04:20:32;;;;;;;5.63;2.57;;;;;;;10.05;76.68;96473.53;4422177;32;20281;-64
2022/01/01 04:22:58;;;;;;;2.43;2.33;;;;;;;10.15;76.12;96471.72;4420836;32;20259;-64
2022/01/01 04:25:25;;;;;;;2.13;2.03;;;;;;;10.16;75.92;96477.81;4417220;32;20214;-64
2022/01/01 04:27:52;;;;;;;5.07;2.37;;;;;;;10.14;76.01;96474.63;4408393;32;20172;-64
2022/01/01 04:30:18;;;;;;;3.00;2.70;;;;;;;10.18;75.93;96471.19;4408308;32;20188;-64
2022/01/01 04:32:43;;;;;;;2.63;2.43;;;;;;;10.15;75.91;96460.31;4411481;32;20212;-64
2022/01/01 04:35:09;;;;;;;2.80;2.60;;;;;;;9.96;76.64;96462.66;4408439;32;20264;-64
2022/01/01 04:37:35;;;;;;;2.60;2.40;;;;;;;10.03;76.68;96463.19;4420886;32;20209;-64
2022/01/01 04:40:00;;;;;;;2.03;1.93;;;;;;;10.04;76.77;96459.47;4419904;32;20195;-64
2022/01/01 04:42:26;;;;;;;2.20;2.10;;;;;;;10.05;76.63;96463.72;4412472;32;20247;-64
2022/01/01 04:44:52;;;;;;;2.27;2.13;;;;;;;9.89;77.22;96467.41;4418285;32;20266;-65
2022/01/01 04:47:17;;;;;;;2.50;2.30;;;;;;;9.89;77.21;96470.03;4422109;32;20228;-64
2022/01/01 04:49:43;;;;;;;2.60;2.40;;;;;;;9.82;77.32;96474.78;4421507;32;20188;-64
2022/01/01 04:52:08;;;;;;;2.67;2.27;;;;;;;9.86;77.39;96468.72;4411674;32;20180;-65
2022/01/01 04:54:38;;;;;;;2.50;2.27;;;;;;;9.92;77.15;96472.97;4423483;32;20301;-64
2022/01/01 04:57:03;;;;;;;2.43;2.00;;;;;;;9.89;77.08;96476.16;4415221;32;20208;-64
2022/01/01 04:59:29;;;;;;;2.50;2.30;;;;;;;10.04;76.67;96474.59;4410295;32;20209;-64
2022/01/01 05:01:54;;;;;;;2.30;2.20;;;;;;;10.06;76.79;96477.78;4416766;32;20183;-64
2022/01/01 05:04:19;;;;;;;3.13;2.20;;;;;;;10.03;76.38;96481.75;4416029;32;20240;-64
2022/01/01 05:06:49;;;;;;;2.27;2.17;;;;;;;10.00;76.86;96484.91;4415212;32;20234;-64
2022/01/01 05:09:14;;;;;;;2.37;1.80;;;;;;;9.94;77.13;96481.47;4419713;32;20199;-64
2022/01/01 05:11:40;;;;;;;1.73;1.63;;;;;;;9.94;77.36;96480.69;4421238;32;20183;-65
2022/01/01 05:14:05;;;;;;;3.70;2.53;;;;;;;10.05;76.87;96476.97;4409499;32;20192;-64
2022/01/01 05:16:30;;;;;;;2.03;1.93;;;;;;;10.10;76.74;96484.97;4408954;32;20255;-64
2022/01/01 05:18:56;;;;;;;3.63;2.10;;;;;;;10.17;76.68;96485.53;4412682;32;20248;-64
2022/01/01 05:21:21;;;;;;;3.17;2.30;;;;;;;9.88;77.67;96489.66;4421421;32;20231;-64
2022/01/01 05:23:46;;;;;;;2.10;2.00;;;;;;;9.95;77.13;96487.56;4411864;32;20195;-64
2022/01/01 05:26:12;;;;;;;2.07;1.87;;;;;;;10.11;76.71;96499.00;4420724;32;20175;-64
2022/01/01 05:28:37;;;;;;;2.73;1.87;;;;;;;9.95;77.02;96496.31;4410849;32;20218;-64
2022/01/01 05:31:06;;;;;;;2.50;2.40;;;;;;;10.02;77.54;96492.59;4412325;32;20189;-64
2022/01/01 05:33:31;;;;;;;3.73;2.27;;;;;;;9.99;77.04;96486.75;4408131;32;20204;-64
2022/01/01 05:35:56;;;;;;;3.07;1.97;;;;;;;9.99;76.92;96489.41;4404961;32;20208;-64
2022/01/01 05:38:22;;;;;;;2.27;2.07;;;;;;;10.05;77.25;96492.09;4412298;32;20195;-64
2022/01/01 05:40:47;;;;;;;2.73;2.13;;;;;;;10.07;76.82;96490.78;4417489;32;20192;-64
2022/01/01 05:43:13;;;;;;;1.80;1.70;;;;;;;9.88;77.70;96489.66;4408578;32;20188;-64
2022/01/01 05:45:43;;;;;;;2.80;2.60;;;;;;;9.97;77.51;96490.75;4409649;32;20237;-64
2022/01/01 05:48:09;;;;;;;2.57;1.80;;;;;;;9.93;77.81;96487.03;4418797;32;20180;-65
2022/01/01 05:50:35;;;;;;;2.00;1.90;;;;;;;9.95;77.49;96492.88;4416546;32;20204;-64
2022/01/01 05:53:01;;;;;;;2.00;1.90;;;;;;;9.70;78.70;96488.25;4420383;32;20180;-64
2022/01/01 05:55:26;;;;;;;3.87;2.17;;;;;;;9.89;78.01;96483.31;4410004;32;20176;-64
2022/01/01 05:57:51;;;;;;;3.57;2.20;;;;;;;9.88;77.92;96481.69;4407052;32;20269;-64
2022/01/01 06:00:17;;;;;;;2.10;1.90;;;;;;;9.91;77.76;96476.69;4416469;32;20251;-64
2022/01/01 06:02:43;;;;;;;1.93;1.83;;;;;;;9.94;77.66;96475.38;4406910;32;20196;-64
2022/01/01 06:05:09;;;;;;;2.37;2.17;;;;;;;9.82;78.30;96485.38;4419047;32;20200;-65
2022/01/01 06:07:35;;;;;;;2.27;2.00;;;;;;;9.67;78.60;96491.41;4413026;32;20293;-64
2022/01/01 06:10:01;;;;;;;2.23;2.13;;;;;;;9.67;79.14;96490.62;4410589;32;20196;-64
2022/01/01 06:12:27;;;;;;;2.53;2.33;;;;;;;9.74;78.57;96486.69;4411747;32;20181;-64
2022/01/01 06:14:52;;;;;;;2.37;2.20;;;;;;;9.74;78.89;96492.00;4411945;32;20223;-64
2022/01/01 06:17:18;;;;;;;2.50;2.10;;;;;;;9.66;78.95;96495.13;4420566;32;20237;-64
2022/01/01 06:19:43;;;;;;;3.33;2.20;;;;;;;9.59;78.92;96490.06;4416761;32;20184;-64
2022/01/01 06:22:09;;;;;;;3.30;2.03;;;;;;;9.64;78.68;96495.37;4406967;32;20184;-65
2022/01/01 06:24:34;;;;;;;2.50;2.30;;;;;;;9.57;78.82;96502.75;4420050;32;20261;-64
2022/01/01 06:26:59;;;;;;;4.20;2.17;;;;;;;9.64;78.73;96498.03;4407027;32;20180;-64
2022/01/01 06:29:25;;;;;;;4.20;2.20;;;;;;;9.50;79.18;96496.91;4408285;32;20267;-64
2022/01/01 06:31:50;;;;;;;2.33;2.03;;;;;;;9.50;79.51;96496.13;4409051;32;20204;-63
2022/01/01 06:34:15;;;;;;;2.50;2.30;;;;;;;9.43;79.59;96498.19;4414973;32;20188;-63
2022/01/01 06:36:41;;;;;;;2.03;1.93;;;;;;;9.37;79.74;96489.41;4406778;32;20235;-63
2022/01/01 06:39:06;;;;;;;2.07;1.97;;;;;;;9.42;79.70;96492.09;4412810;32;20179;-63
2022/01/01 06:41:31;;;;;;;3.00;2.13;;;;;;;9.35;79.91;96488.09;4406715;32;20233;-63
2022/01/01 06:43:57;;;;;;;2.17;2.07;;;;;;;9.15;80.25;96494.03;4414916;32;20184;-63
2022/01/01 06:46:22;;;;;;;2.10;1.83;;;;;;;9.19;80.21;96489.81;4414773;32;20187;-63
2022/01/01 06:48:47;;;;;;;3.40;2.20;;;;;;;9.19;80.00;96501.22;4406524;32;20272;-63
2022/01/01 06:51:13;;;;;;;2.13;2.03;;;;;;;9.09;79.92;96490.56;4415447;32;20183;-63
2022/01/01 06:53:38;;;;;;;2.00;1.83;;;;;;;9.11;79.52;96495.63;4408334;32;20180;-63
2022/01/01 06:56:05;;;;;;;2.00;1.90;;;;;;;9.31;78.83;96493.09;4411339;32;20239;-63
2022/01/01 06:58:35;;;;;;;2.50;2.30;;;;;;;9.28;78.53;96497.03;4421442;32;20184;-63
2022/01/01 07:01:00;;;;;;;2.43;1.60;;;;;;;9.32;78.54;96485.94;4410291;32;20371;-63
2022/01/01 07:03:26;;;;;;;1.97;1.87;;;;;;;9.12;79.04;96489.25;4418180;32;20198;-63
2022/01/01 07:05:51;;;;;;;2.17;2.00;;;;;;;9.22;78.56;96494.63;4419713;32;20219;-63
2022/01/01 07:08:16;;;;;;;3.17;2.30;;;;;;;9.07;79.14;96486.56;4410754;32;20228;-64
2022/01/01 07:10:44;;;;;;;2.47;2.30;;;;;;;8.96;79.57;96483.84;4416049;32;20203;-64
2022/01/01 07:13:10;;;;;;;2.50;2.30;;;;;;;9.05;79.41;96475.44;4415272;32;20225;-64
2022/01/01 07:15:35;;;;;;;3.23;2.17;;;;;;;9.00;79.50;96478.06;4406527;32;20283;-63
2022/01/01 07:18:01;;;;;;;3.43;2.20;;;;;;;9.10;78.91;96484.22;4409642;32;20224;-63
2022/01/01 07:20:26;;;;;;;2.43;2.33;;;;;;;9.07;78.82;96481.28;4414966;32;20191;-63
2022/01/01 07:22:51;;;;;;;2.50;2.30;;;;;;;8.93;79.00;96486.22;4413258;32;20219;-63
2022/01/01 07:25:17;;;;;;;2.20;2.10;;;;;;;8.94;79.24;96496.53;4405185;32;20188;-63
2022/01/01 07:27:43;;;;;;;3.47;1.97;;;;;;;9.00;78.89;96491.28;4405988;32;20194;-63
2022/01/01 07:30:09;;;;;;;2.17;2.07;;;;;;;8.98;78.96;96498.69;4406301;32;20184;-63
2022/01/01 07:32:41;;;;;;;2.37;2.17;;;;;;;8.97;79.06;96497.88;4413317;32;20184;-63
2022/01/01 07:35:07;;;;;;;2.63;2.43;;;;;;;8.91;79.18;96489.13;4409469;32;20230;-63
2022/01/01 07:37:33;;;;;;;2.07;1.97;;;;;;;9.00;79.21;96494.72;4420189;32;20287;-63
2022/01/01 07:39:58;;;;;;;2.70;2.50;;;;;;;8.91;79.42;96483.84;4413586;32;25625;-64
2022/01/01 07:42:23;;;;;;;3.10;2.30;;;;;;;8.93;79.37;96484.38;4411499;32;20262;-63
2022/01/01 07:44:48;;;;;;;2.90;2.30;;;;;;;8.90;79.69;96476.94;4405799;32;20222;-63
2022/01/01 07:47:14;;;;;;;3.03;2.37;;;;;;;8.98;79.22;96472.22;4413506;32;20191;-63
2022/01/01 07:49:39;;;;;;;2.20;2.00;;;;;;;8.93;79.07;96473.78;4406020;32;20188;-63
2022/01/01 07:52:05;;;;;;;2.40;2.13;;;;;;;8.80;79.70;96476.06;4417320;32;20192;-63
2022/01/01 07:54:30;;;;;;;2.83;2.03;;;;;;;8.60;79.73;96476.69;4405564;32;20184;-63
2022/01/01 07:56:55;;;;;;;2.50;2.30;;;;;;;8.85;79.12;96474.25;4419076;32;20194;-63
2022/01/01 07:59:21;;;;;;;2.60;2.40;;;;;;;8.71;78.85;96475.75;4405791;32;20244;-63
2022/01/01 08:01:46;;;;;;;2.73;2.50;;;;;;;8.88;78.62;96471.09;4413991;32;20203;-64
2022/01/01 08:04:11;;;;;;;2.30;2.10;;;;;;;8.91;78.60;96464.50;4420179;32;20238;-64
2022/01/01 08:06:36;;;;;;;2.30;2.20;;;;;;;8.81;78.63;96467.88;4421439;32;20184;-63
2022/01/01 08:09:03;;;;;;;2.50;2.30;;;;;;;9.02;78.31;96474.09;4419241;32;20184;-63
2022/01/01 08:11:28;;;;;;;2.10;2.00;;;;;;;9.16;77.38;96474.44;4412735;32;20188;-63
2022/01/01 08:13:53;;;;;;;4.07;2.57;;;;;;;9.16;77.36;96472.59;4412440;32;20293;-63
2022/01/01 08:16:19;;;;;;;3.00;2.80;;;;;;;9.18;77.24;96465.19;4413519;32;20192;-63
2022/01/01 08:18:44;;;;;;;2.43;2.30;;;;;;;9.04;77.57;96472.00;4408171;32;20179;-63
2022/01/01 08:21:10;;;;;;;2.67;2.47;;;;;;;9.17;77.24;96474.19;4412588;32;20206;-63
2022/01/01 08:23:35;;;;;;;2.50;2.30;;;;;;;9.20;77.18;96476.34;4419392;32;20229;-63
2022/01/01 08:26:03;;;;;;;2.13;2.03;;;;;;;9.22;77.60;96484.03;4412312;32;20176;-63
2022/01/01 08:28:29;;;;;;;2.50;2.30;;;;;;;9.28;77.19;96477.72;4403690;32;20200;-63
2022/01/01 08:30:54;;;;;;;5.47;2.83;;;;;;;9.16;77.34;96483.19;4411365;32;20331;-63
2022/01/01 08:33:20;;;;;;;3.10;2.90;;;;;;;9.28;77.23;96478.50;4408187;32;20188;-64
2022/01/01 08:35:45;;;;;;;2.70;2.50;;;;;;;9.20;77.40;96494.87;4416490;32;20198;-63
2022/01/01 08:38:11;;;;;;;2.63;2.40;;;;;;;9.11;77.86;96492.97;4422350;32;20187;-63
2022/01/01 08:40:36;;;;;;;2.40;2.20;;;;;;;9.21;77.40;96500.97;4413982;32;20234;-63
2022/01/01 08:43:02;;;;;;;2.97;2.40;;;;;;;9.22;76.99;96505.19;4408482;32;20233;-63
2022/01/01 08:45:27;;;;;;;3.00;2.70;;;;;;;9.20;77.30;96502.81;4407568;32;20180;-63
2022/01/01 08:47:53;;;;;;;4.07;2.70;;;;;;;9.26;76.89;96509.75;4415331;32;20199;-63
2022/01/01 08:50:18;;;;;;;2.37;2.27;;;;;;;9.20;77.46;96508.09;4408133;32;20172;-63
2022/01/01 08:52:44;;;;;;;2.97;2.77;;;;;;;9.27;77.11;96502.59;4409718;32;20210;-64
2022/01/01 08:55:10;;;;;;;2.50;2.30;;;;;;;9.31;76.93;96519.56;4421155;32;20251;-64
2022/01/01 08:57:36;;;;;;;3.97;2.60;;;;;;;9.33;76.13;96517.47;4409138;32;20288;-63
2022/01/01 09:00:06;;;;;;;2.43;2.23;;;;;;;9.28;76.64;96517.44;4409995;32;20306;-63
2022/01/01 09:02:31;;;;;;;2.83;2.30;;;;;;;9.28;77.43;96520.88;4417683;32;20192;-63
2022/01/01 09:04:57;;;;;;;2.73;2.53;;;;;;;9.30;77.49;96524.06;4424263;32;20187;-63
2022/01/01 09:07:28;;;;;;;2.50;2.20;;;;;;;9.34;77.17;96513.78;4414446;32;20235;-63
2022/01/01 09:09:53;;;;;;;2.83;2.63;;;;;;;9.47;76.71;96518.59;4406073;32;20188;-63
2022/01/01 09:12:19;;;;;;;2.90;2.70;;;;;;;9.48;76.96;96509.59;4419221;32;20191;-63
2022/01/01 09:14:44;;;;;;;2.93;2.73;;;;;;;9.48;77.39;96499.00;4414187;32;20180;-63
2022/01/01 09:17:10;;;;;;;2.83;2.63;;;;;;;9.45;77.49;96504.03;4414515;32;20214;-63
2022/01/01 09:19:35;;;;;;;2.73;2.63;;;;;;;9.44;77.75;96502.44;4422188;32;20251;-63
2022/01/01 09:22:00;;;;;;;3.33;2.90;;;;;;;9.51;77.10;96506.44;4421371;32;20229;-63
2022/01/01 09:24:25;;;;;;;2.97;2.73;;;;;;;9.50;77.66;96515.44;4407416;32;20183;-63
2022/01/01 09:26:51;;;;;;;2.53;2.43;;;;;;;9.57;77.90;96516.00;4413380;32;20195;-63
2022/01/01 09:29:18;;;;;;;3.17;2.97;;;;;;;9.54;78.12;96519.19;4406226;32;20194;-63
2022/01/01 09:31:44;;;;;;;3.40;3.20;;;;;;;9.51;78.53;96518.91;4414649;32;20214;-64
2022/01/01 09:34:10;;;;;;;2.93;2.73;;;;;;;9.60;78.40;96512.84;4408985;32;20188;-64
2022/01/01 09:36:36;;;;;;;3.30;3.07;;;;;;;9.60;78.58;96520.78;4411030;32;20200;-63
2022/01/01 09:39:04;;;;;;;3.30;2.77;;;;;;;9.70;77.80;96519.25;4419026;32;20195;-64
2022/01/01 09:41:29;;;;;;;2.23;2.10;;;;;;;9.73;76.92;96518.75;4407395;32;20196;-64
2022/01/01 09:43:56;;;;;;;2.60;2.40;;;;;;;9.79;75.77;96528.28;4405525;32;20229;-63
2022/01/01 09:46:22;;;;;;;2.73;2.53;;;;;;;9.85;76.12;96535.22;4414494;32;20188;-63
2022/01/01 09:48:50;;;;;;;2.23;2.13;;;;;;;9.92;75.24;96535.78;4420058;32;20194;-64
2022/01/01 09:51:15;;;;;;;2.40;2.30;;;;;;;9.96;75.99;96536.88;4418268;32;20179;-64
2022/01/01 09:53:41;;;;;;;2.63;2.43;;;;;;;10.02;75.31;96535.81;4411258;32;20207;-64
2022/01/01 09:56:06;;;;;;;2.83;2.63;;;;;;;10.03;75.33;96542.72;4411715;32;20197;-63
2022/01/01 09:58:34;;;;;;;2.57;2.37;;;;;;;10.06;74.62;96542.22;4419482;32;20198;-63
2022/01/01 10:01:02;;;;;;;2.37;2.17;;;;;;;10.18;73.98;96534.84;4405675;32;20184;-63
2022/01/01 10:03:38;;;;;;;2.17;2.07;;;;;;;10.17;73.33;96527.16;4407054;32;20210;-63
2022/01/01 10:06:14;;;;;;;4.90;4.50;;;;;;;10.24;73.99;96523.19;4406425;32;20222;-63
2022/01/01 10:08:56;;;;;;;2.37;2.17;;;;;;;10.32;72.89;96535.97;4410518;32;20195;-63
2022/01/01 10:11:22;;;;;;;3.10;2.40;;;;;;;10.39;72.65;96545.53;4407479;32;20259;-63
2022/01/01 10:13:47;;;;;;;2.43;2.23;;;;;;;10.46;72.44;96540.75;4405627;32;20192;-64
2022/01/01 10:16:14;;;;;;;3.70;3.10;;;;;;;10.46;73.02;96543.41;4409294;32;20253;-64
2022/01/01 10:18:48;;;;;;;3.60;2.60;;;;;;;10.53;72.45;96525.41;4409740;32;20219;-63
2022/01/01 10:21:16;;;;;;;3.57;3.27;;;;;;;10.54;72.43;96521.69;4409144;32;20198;-64
2022/01/01 10:23:44;;;;;;;3.77;3.13;;;;;;;10.60;72.27;96516.13;4417539;32;20248;-64
2022/01/01 10:29:12;;;;;;;2.70;2.50;;;;;;;10.76;72.11;96513.50;4409388;32;20267;-63
2022/01/01 10:31:40;;;;;;;2.70;2.57;;;;;;;10.84;71.40;96521.72;4405715;32;20195;-63
2022/01/01 10:34:14;;;;;;;2.20;2.10;;;;;;;10.86;71.14;96516.94;4410151;32;20218;-63
2022/01/01 10:36:39;;;;;;;2.00;1.90;;;;;;;10.86;70.33;96519.59;4419319;32;20198;-64
2022/01/01 10:39:10;;;;;;;2.17;1.97;;;;;;;10.92;70.49;96518.53;4407888;32;20192;-64
2022/01/01 10:41:44;;;;;;;2.33;2.23;;;;;;;10.98;70.00;96528.09;4416785;32;20198;-64
2022/01/01 10:44:09;;;;;;;2.13;2.00;;;;;;;10.96;70.77;96524.91;4405627;32;20200;-63
2022/01/01 10:46:37;;;;;;;1.97;1.87;;;;;;;11.03;70.55;96519.31;4404553;32;20338;-63
2022/01/01 10:52:24;;;;;;;1.93;1.83;;;;;;;11.02;70.30;96510.56;4409437;32;20206;-64
2022/01/01 10:55:00;;;;;;;2.30;2.20;;;;;;;11.10;69.59;96509.25;4418621;32;20195;-63
2022/01/01 10:57:41;;;;;;;3.10;2.17;;;;;;;11.16;69.48;96512.69;4412668;32;20184;-63
2022/01/01 11:00:17;;;;;;;3.13;2.17;;;;;;;11.27;68.89;96499.12;4405606;32;20171;-63
2022/01/01 11:02:52;;;;;;;1.90;1.80;;;;;;;11.28;68.91;96500.72;4418383;32;20230;-64
2022/01/01 11:05:31;;;;;;;2.20;2.00;;;;;;;11.27;70.72;96495.66;4408891;32;20180;-64
2022/01/01 11:07:57;;;;;;;2.17;2.07;;;;;;;11.28;70.43;96479.47;4406686;32;20215;-63
2022/01/01 11:10:23;;;;;;;4.00;1.87;;;;;;;11.19;69.95;96474.97;4410767;32;20227;-63
2022/01/01 11:12:50;;;;;;;2.13;2.00;;;;;;;11.28;69.46;96468.03;4418621;32;20224;-63
2022/01/01 11:15:16;;;;;;;2.37;1.90;;;;;;;11.22;70.36;96469.91;4420066;32;20208;-63
2022/01/01 11:17:43;;;;;;;3.10;2.80;;;;;;;11.27;70.09;96475.22;4418861;32;20176;-63
2022/01/01 11:20:09;;;;;;;2.23;2.07;;;;;;;11.37;68.85;96471.75;4417696;32;20236;-63
2022/01/01 11:22:34;;;;;;;1.83;1.73;;;;;;;11.41;69.01;96472.81;4408551;32;20180;-65
2022/01/01 11:25:01;;;;;;;2.33;2.13;;;;;;;11.51;68.57;96474.63;4407276;32;20330;-65
2022/01/01 11:27:27;;;;;;;2.33;2.13;;;;;;;11.64;68.25;96474.06;4419255;32;20263;-66
2022/01/01 11:29:56;;;;;;;2.00;1.90;;;;;;;11.68;68.11;96462.59;4421498;32;20184;-66
2022/01/01 11:32:49;;;;;;;1.80;1.70;;;;;;;11.68;68.07;96462.59;4406969;32;20183;-66
2022/01/01 11:35:19;;;;;;;1.80;1.70;;;;;;;11.74;68.49;96467.91;4411656;32;20202;-66
2022/01/01 11:37:45;;;;;;;2.33;2.13;;;;;;;11.77;67.90;96470.88;4416512;32;20199;-66
2022/01/01 11:40:14;;;;;;;1.60;1.50;;;;;;;11.81;67.58;96463.94;4408735;32;20240;-67
2022/01/01 11:42:45;;;;;;;1.90;1.80;;;;;;;11.84;67.78;96460.75;4420491;32;20184;-66